South Barre, Massachusetts
Current Conditions -  °F | °C
As of 4:54 AM on Saturday 22 Nov 2014 (Local Time) from KORH Reporting Station
Clear Clear  
Wind Chill:   Ceiling: Unl
Heat Index: 20°   Visibility: 10mi
Dew Point:   Wind: 12mph
Humidity: 62%   Direction: 260°W
Pressure: 30.35"   Gusts: NA
Location:  42.39°N, 72.1°W
Report Text: KORH 220954Z AUTO 26010KT 10SM CLR M07/M13 A3035 RMK AO2 SLP294 T10671128
Loading
Personal Weather Stations






























Interactive Weather Map New forecast layout! Learn more

10-Day Weather Forecast

Advertisements
Track Severe Weather on mobile